createdAt,value
2022-10-28T00:01:23.003Z,6.17
2022-10-28T00:03:52.627Z,5.77
2022-10-28T00:06:28.637Z,5.77
2022-10-28T00:08:56.356Z,5.50
2022-10-28T00:11:26.305Z,6.27
2022-10-28T00:13:55.867Z,6.40
2022-10-28T00:16:25.315Z,6.43
2022-10-28T00:18:54.210Z,5.30
2022-10-28T00:21:32.955Z,5.80
2022-10-28T00:23:59.886Z,5.93
2022-10-28T00:26:29.857Z,6.20
2022-10-28T00:29:01.626Z,6.67
2022-10-28T00:31:30.361Z,5.50
2022-10-28T00:33:59.276Z,5.90
2022-10-28T00:36:28.525Z,5.93
2022-10-28T00:38:56.757Z,5.20
2022-10-28T00:41:37.881Z,5.73
2022-10-28T00:44:47.931Z,4.90
2022-10-28T00:47:28.003Z,5.30
2022-10-28T00:50:23.896Z,5.00
2022-10-28T00:52:58.445Z,4.70
2022-10-28T00:55:25.813Z,5.07
2022-10-28T00:57:57.735Z,5.37
2022-10-28T01:00:25.543Z,4.47
2022-10-28T01:02:52.341Z,5.27
2022-10-28T01:05:26.101Z,4.80
2022-10-28T01:07:57.318Z,4.63
2022-10-28T01:10:47.829Z,4.80
2022-10-28T01:13:24.584Z,3.97
2022-10-28T01:16:09.799Z,4.70
2022-10-28T01:18:49.148Z,4.03
2022-10-28T01:21:34.622Z,4.43
2022-10-28T01:24:27.414Z,4.17
2022-10-28T01:27:17.434Z,4.20
2022-10-28T01:30:07.554Z,4.17
2022-10-28T01:32:48.851Z,5.80
2022-10-28T01:35:24.774Z,4.63
2022-10-28T01:38:15.931Z,4.60
2022-10-28T01:40:55.110Z,4.57
2022-10-28T01:43:34.253Z,5.00
2022-10-28T01:46:07.756Z,4.47
2022-10-28T01:48:55.904Z,4.07
2022-10-28T01:51:34.467Z,4.00
2022-10-28T01:54:05.780Z,3.87
2022-10-28T01:56:37.228Z,4.60
2022-10-28T01:59:07.697Z,4.03
2022-10-28T02:01:36.276Z,4.60
2022-10-28T02:04:03.464Z,4.80
2022-10-28T02:06:33.128Z,4.43
2022-10-28T02:09:28.486Z,3.47
2022-10-28T02:12:20.924Z,4.10
2022-10-28T02:15:19.979Z,4.53
2022-10-28T02:18:08.272Z,3.67
2022-10-28T02:20:42.200Z,3.50
2022-10-28T02:23:14.809Z,3.80
2022-10-28T02:25:59.239Z,3.77
2022-10-28T02:28:38.908Z,3.77
2022-10-28T02:31:18.711Z,3.50
2022-10-28T02:33:51.236Z,5.40
2022-10-28T02:36:22.266Z,4.80
2022-10-28T02:38:57.820Z,3.77
2022-10-28T02:41:35.880Z,4.13
2022-10-28T02:44:08.456Z,4.00
2022-10-28T02:46:37.083Z,4.20
2022-10-28T02:49:10.380Z,4.00
2022-10-28T02:51:55.959Z,4.40
2022-10-28T02:54:34.571Z,4.47
2022-10-28T02:57:21.387Z,4.70
2022-10-28T03:00:05.169Z,4.10
2022-10-28T03:02:32.489Z,4.10
2022-10-28T03:04:59.228Z,3.80
2022-10-28T03:07:25.939Z,4.43
2022-10-28T03:09:52.617Z,4.60
2022-10-28T03:12:19.389Z,3.70
2022-10-28T03:14:46.081Z,4.97
2022-10-28T03:17:12.929Z,3.70
2022-10-28T03:19:39.622Z,3.67
2022-10-28T03:22:06.396Z,3.40
2022-10-28T03:24:33.083Z,3.20
2022-10-28T03:26:59.993Z,3.43
2022-10-28T03:29:26.687Z,3.60
2022-10-28T03:31:53.407Z,3.53
2022-10-28T03:34:20.162Z,4.37
2022-10-28T03:36:46.996Z,3.80
2022-10-28T03:39:13.681Z,3.50
2022-10-28T03:41:40.452Z,3.63
2022-10-28T03:44:07.189Z,4.03
2022-10-28T03:46:35.986Z,3.70
2022-10-28T03:49:03.784Z,4.27
2022-10-28T03:51:30.515Z,4.27
2022-10-28T03:53:57.234Z,4.80
2022-10-28T03:56:23.990Z,4.30
2022-10-28T04:01:22.708Z,4.33
2022-10-28T04:03:49.490Z,4.07
2022-10-28T04:06:16.819Z,3.70
2022-10-28T04:08:43.564Z,4.20
2022-10-28T04:11:10.289Z,4.43
2022-10-28T04:13:37.033Z,3.73
2022-10-28T04:16:04.087Z,4.60
2022-10-28T04:18:30.853Z,3.80
2022-10-28T04:20:57.708Z,3.97
2022-10-28T04:23:24.468Z,4.43
2022-10-28T04:25:54.990Z,4.10
2022-10-28T04:28:24.174Z,3.80
2022-10-28T04:30:50.972Z,4.30
2022-10-28T04:33:17.756Z,4.00
2022-10-28T04:35:45.170Z,4.47
2022-10-28T04:38:13.964Z,3.80
2022-10-28T04:40:40.741Z,3.90
2022-10-28T04:43:09.845Z,4.90
2022-10-28T04:45:37.602Z,4.97
2022-10-28T04:48:04.576Z,5.30
2022-10-28T04:50:31.289Z,5.70
2022-10-28T04:52:57.978Z,5.40
2022-10-28T04:55:24.702Z,4.50
2022-10-28T04:57:59.804Z,5.10
2022-10-28T05:00:27.855Z,5.47
2022-10-28T05:02:55.312Z,4.30
2022-10-28T05:05:22.873Z,4.57
2022-10-28T05:07:49.613Z,4.40
2022-10-28T05:10:18.099Z,3.97
2022-10-28T05:12:47.887Z,4.30
2022-10-28T05:15:15.587Z,4.50
2022-10-28T05:17:47.056Z,5.77
2022-10-28T05:20:16.337Z,4.50
2022-10-28T05:22:52.631Z,3.87
2022-10-28T05:25:20.271Z,4.47
2022-10-28T05:27:47.341Z,4.17
2022-10-28T05:30:14.764Z,4.60
2022-10-28T05:32:41.952Z,4.20
2022-10-28T05:35:09.472Z,4.50
2022-10-28T05:37:36.706Z,4.63
2022-10-28T05:40:04.399Z,5.07
2022-10-28T05:42:31.094Z,5.87
2022-10-28T05:44:57.796Z,4.83
2022-10-28T05:47:24.534Z,3.70
2022-10-28T05:49:51.295Z,4.30
2022-10-28T05:52:18.017Z,3.60
2022-10-28T05:54:44.748Z,4.47
2022-10-28T05:57:11.509Z,3.70
2022-10-28T05:59:38.267Z,4.67
2022-10-28T06:02:04.984Z,3.67
2022-10-28T06:04:32.958Z,4.53
2022-10-28T06:06:59.710Z,3.80
2022-10-28T06:09:28.803Z,4.80
2022-10-28T06:11:54.023Z,3.93
2022-10-28T06:14:20.841Z,4.90
2022-10-28T06:16:47.579Z,3.70
2022-10-28T06:19:14.356Z,3.43
2022-10-28T06:21:41.150Z,2.93
2022-10-28T06:24:12.306Z,4.00
2022-10-28T06:26:39.370Z,4.13
2022-10-28T06:29:09.078Z,3.43
2022-10-28T06:31:42.943Z,4.37
2022-10-28T06:34:10.327Z,4.00
2022-10-28T06:36:37.959Z,3.73
2022-10-28T06:39:05.200Z,4.57
2022-10-28T06:41:32.047Z,4.07
2022-10-28T06:43:59.141Z,4.37
2022-10-28T06:46:26.241Z,3.93
2022-10-28T06:48:55.224Z,4.90
2022-10-28T06:51:22.993Z,5.43
2022-10-28T06:53:52.974Z,4.80
2022-10-28T06:56:20.142Z,4.40
2022-10-28T06:58:51.345Z,4.20
2022-10-28T07:01:19.003Z,4.67
2022-10-28T07:03:46.206Z,5.47
2022-10-28T07:08:41.098Z,4.50
2022-10-28T07:11:08.094Z,4.50
2022-10-28T07:13:34.814Z,4.20
2022-10-28T07:16:01.962Z,3.53
2022-10-28T07:18:29.978Z,3.97
2022-10-28T07:21:00.970Z,4.37
2022-10-28T07:23:28.322Z,5.10
2022-10-28T07:25:56.377Z,4.53
2022-10-28T07:28:24.937Z,4.63
2022-10-28T07:30:52.047Z,4.30
2022-10-28T07:33:19.229Z,4.60
2022-10-28T07:35:46.018Z,3.97
2022-10-28T07:38:12.740Z,4.40
2022-10-28T07:40:39.559Z,3.77
2022-10-28T07:43:06.428Z,3.30
2022-10-28T07:45:35.156Z,3.80
2022-10-28T07:48:02.304Z,3.20
2022-10-28T07:50:29.246Z,4.33
2022-10-28T07:52:56.348Z,4.27
2022-10-28T07:55:23.494Z,6.03
2022-10-28T07:57:50.158Z,3.03
2022-10-28T08:00:17.084Z,3.23
2022-10-28T08:02:43.892Z,2.93
2022-10-28T08:05:10.734Z,3.87
2022-10-28T08:07:38.813Z,3.73
2022-10-28T08:10:06.841Z,4.70
2022-10-28T08:12:33.817Z,3.60
2022-10-28T08:15:00.691Z,3.40
2022-10-28T08:17:27.415Z,3.77
2022-10-28T08:19:54.188Z,3.80
2022-10-28T08:22:20.970Z,3.73
2022-10-28T08:24:47.807Z,4.70
2022-10-28T08:27:14.588Z,4.87
2022-10-28T08:29:41.314Z,5.70
2022-10-28T08:32:09.256Z,4.67
2022-10-28T08:34:39.212Z,3.70
2022-10-28T08:37:09.237Z,4.73
2022-10-28T08:39:36.075Z,4.80
2022-10-28T08:42:08.500Z,4.30
2022-10-28T08:44:58.500Z,4.50
2022-10-28T08:47:47.726Z,3.70
2022-10-28T08:50:18.349Z,3.60
2022-10-28T08:52:54.718Z,3.80
2022-10-28T08:55:35.335Z,3.47
2022-10-28T08:58:20.883Z,3.33
2022-10-28T09:00:53.129Z,4.63
2022-10-28T09:03:24.318Z,4.03
2022-10-28T09:06:01.470Z,4.43
2022-10-28T09:08:31.550Z,3.00
2022-10-28T09:11:14.104Z,3.47
2022-10-28T09:13:43.530Z,2.73
2022-10-28T09:16:16.413Z,3.23
2022-10-28T09:18:45.960Z,3.80
2022-10-28T09:21:24.812Z,4.57
2022-10-28T09:23:59.409Z,3.13
2022-10-28T09:26:55.797Z,3.03
2022-10-28T09:29:32.098Z,2.63
2022-10-28T09:32:24.790Z,2.83
2022-10-28T09:35:01.402Z,2.97
2022-10-28T09:37:36.470Z,3.03
2022-10-28T09:40:25.948Z,2.87
2022-10-28T09:43:22.734Z,4.00
2022-10-28T09:45:53.268Z,3.10
2022-10-28T09:48:28.640Z,3.60
2022-10-28T09:50:58.489Z,3.30
2022-10-28T09:53:41.949Z,3.80
2022-10-28T09:56:09.700Z,3.93
2022-10-28T09:58:45.623Z,4.17
2022-10-28T10:01:13.205Z,3.73
2022-10-28T10:03:41.788Z,3.93
2022-10-28T10:06:15.580Z,3.57
2022-10-28T10:08:42.742Z,4.73
2022-10-28T10:11:26.186Z,4.30
2022-10-28T10:13:53.829Z,4.43
2022-10-28T10:16:42.660Z,3.20
2022-10-28T10:19:11.229Z,2.47
2022-10-28T10:21:45.586Z,2.80
2022-10-28T10:24:32.933Z,2.60
2022-10-28T10:27:14.480Z,3.67
2022-10-28T10:29:46.130Z,2.93
2022-10-28T10:32:18.223Z,3.30
2022-10-28T10:34:50.223Z,2.83
2022-10-28T10:37:20.685Z,2.97
2022-10-28T10:40:01.885Z,2.90
2022-10-28T10:42:28.629Z,2.83
2022-10-28T10:45:02.435Z,3.80
2022-10-28T10:47:29.708Z,2.13
2022-10-28T10:50:18.997Z,2.40
2022-10-28T10:52:55.563Z,2.40
2022-10-28T10:55:31.367Z,2.20
2022-10-28T10:57:58.668Z,2.70
2022-10-28T11:00:31.621Z,2.70
2022-10-28T11:02:59.965Z,2.50
2022-10-28T11:05:35.762Z,4.37
2022-10-28T11:08:06.654Z,2.83
2022-10-28T11:10:35.325Z,2.97
2022-10-28T11:13:25.071Z,3.20
2022-10-28T11:16:02.951Z,3.03
2022-10-28T11:18:41.094Z,2.23
2022-10-28T11:21:27.603Z,3.03
2022-10-28T11:24:08.438Z,2.80
2022-10-28T11:26:42.303Z,2.43
2022-10-28T11:29:15.653Z,2.00
2022-10-28T11:32:14.408Z,2.10
2022-10-28T11:35:10.490Z,2.50
2022-10-28T11:38:10.833Z,2.30
2022-10-28T11:40:56.986Z,7.13
2022-10-28T11:43:54.595Z,21.33
2022-10-28T11:47:04.118Z,14.50
2022-10-28T11:49:32.026Z,7.53
2022-10-28T11:52:44.266Z,6.17
2022-10-28T11:55:38.075Z,7.33
2022-10-28T11:58:32.117Z,3.90
2022-10-28T12:01:13.948Z,4.70
2022-10-28T12:03:52.605Z,7.83
2022-10-28T12:06:50.936Z,4.57
2022-10-28T12:09:29.188Z,3.73
2022-10-28T12:12:02.214Z,3.30
2022-10-28T12:14:34.592Z,3.67
2022-10-28T12:17:28.875Z,2.77
2022-10-28T12:20:02.726Z,3.83
2022-10-28T12:22:36.311Z,2.90
2022-10-28T12:25:09.928Z,3.23
2022-10-28T12:27:40.900Z,3.50
2022-10-28T12:30:28.619Z,3.27
2022-10-28T12:33:00.075Z,3.40
2022-10-28T12:35:40.288Z,2.80
2022-10-28T12:38:15.812Z,2.40
2022-10-28T12:41:08.866Z,2.53
2022-10-28T12:43:46.617Z,2.73
2022-10-28T12:49:46.747Z,8.80
2022-10-28T12:52:36.792Z,4.17
2022-10-28T12:57:52.005Z,2.40
2022-10-28T13:00:24.605Z,2.33
2022-10-28T13:03:07.960Z,2.93
2022-10-28T13:06:24.987Z,4.77
2022-10-28T13:09:09.077Z,3.00
2022-10-28T13:11:38.820Z,4.77
2022-10-28T13:14:15.595Z,4.27
2022-10-28T13:16:57.546Z,2.73
2022-10-28T13:19:48.018Z,3.90
2022-10-28T13:22:21.141Z,3.87
2022-10-28T13:25:25.996Z,4.00
2022-10-28T13:27:58.182Z,2.50
2022-10-28T13:30:26.720Z,3.07
2022-10-28T13:33:08.560Z,3.07
2022-10-28T13:35:36.924Z,3.50
2022-10-28T13:38:11.197Z,2.53
2022-10-28T13:40:40.866Z,2.30
2022-10-28T13:43:19.037Z,2.77
2022-10-28T13:45:52.211Z,2.60
2022-10-28T13:48:43.864Z,2.43
2022-10-28T13:51:10.526Z,3.17
2022-10-28T13:53:45.015Z,3.23
2022-10-28T13:56:25.415Z,2.70
2022-10-28T13:58:56.552Z,2.00
2022-10-28T14:01:35.571Z,3.50
2022-10-28T14:04:04.181Z,2.70
2022-10-28T14:06:33.525Z,3.10
2022-10-28T14:09:00.838Z,2.77
2022-10-28T14:11:29.266Z,2.27
2022-10-28T14:14:01.114Z,2.73
2022-10-28T14:16:39.276Z,3.33
2022-10-28T14:19:09.023Z,4.23
2022-10-28T14:22:11.022Z,4.10
2022-10-28T14:24:42.953Z,2.50
2022-10-28T14:27:11.527Z,7.37
2022-10-28T14:29:45.913Z,5.00
2022-10-28T14:32:31.273Z,3.53
2022-10-28T14:35:14.584Z,2.10
2022-10-28T14:37:59.748Z,1.93
2022-10-28T14:40:47.159Z,2.47
2022-10-28T14:43:41.866Z,4.60
2022-10-28T14:46:29.203Z,4.10
2022-10-28T14:48:58.087Z,2.63
2022-10-28T14:51:27.922Z,2.30
2022-10-28T14:53:58.860Z,2.80
2022-10-28T14:56:28.458Z,4.40
2022-10-28T14:59:17.344Z,2.57
2022-10-28T15:01:54.186Z,2.77
2022-10-28T15:04:22.450Z,2.70
2022-10-28T15:06:51.597Z,3.40
2022-10-28T15:09:32.989Z,3.03
2022-10-28T15:12:03.089Z,2.67
2022-10-28T15:14:41.888Z,3.13
2022-10-28T15:17:19.400Z,2.57
2022-10-28T15:19:51.601Z,2.60
2022-10-28T15:22:25.403Z,3.10
2022-10-28T15:25:04.930Z,3.23
2022-10-28T15:27:34.921Z,3.00
2022-10-28T15:30:03.122Z,3.70
2022-10-28T15:32:35.164Z,3.80
2022-10-28T15:35:26.901Z,3.73
2022-10-28T15:37:54.845Z,4.03
2022-10-28T15:40:33.343Z,4.43
2022-10-28T15:43:05.067Z,4.60
2022-10-28T15:45:39.670Z,5.27
2022-10-28T15:48:14.451Z,4.03
2022-10-28T15:50:41.548Z,4.47
2022-10-28T15:53:10.993Z,3.50
2022-10-28T15:56:06.831Z,3.90
2022-10-28T15:58:39.393Z,3.70
2022-10-28T16:01:28.295Z,3.10
2022-10-28T16:03:55.252Z,3.97
2022-10-28T16:06:26.931Z,2.80
2022-10-28T16:09:04.115Z,4.10
2022-10-28T16:11:32.172Z,4.20
2022-10-28T16:14:00.780Z,4.50
2022-10-28T16:16:30.011Z,4.43
2022-10-28T16:19:10.542Z,4.60
2022-10-28T16:21:38.424Z,9.30
2022-10-28T16:24:05.413Z,12.40
2022-10-28T16:26:33.362Z,11.33
2022-10-28T16:29:00.135Z,9.63
2022-10-28T16:31:30.141Z,9.70
2022-10-28T16:33:58.671Z,6.00
2022-10-28T16:36:28.058Z,6.10
2022-10-28T16:38:54.987Z,5.30
2022-10-28T16:41:22.188Z,6.40
2022-10-28T16:43:48.854Z,6.87
2022-10-28T16:46:15.601Z,6.20
2022-10-28T16:48:42.374Z,6.13
2022-10-28T16:51:16.498Z,6.13
2022-10-28T16:53:47.058Z,5.50
2022-10-28T16:56:17.739Z,5.97
2022-10-28T16:58:44.647Z,4.73
2022-10-28T17:01:12.030Z,5.07
2022-10-28T17:03:38.888Z,4.63
2022-10-28T17:06:05.857Z,5.07
2022-10-28T17:09:00.608Z,7.30
2022-10-28T17:11:19.591Z,7.40
2022-10-28T17:13:46.418Z,7.17
2022-10-28T17:16:13.252Z,6.40
2022-10-28T17:18:42.504Z,6.10
2022-10-28T17:21:09.639Z,6.03
2022-10-28T17:23:36.427Z,6.73
2022-10-28T17:26:03.269Z,6.23
2022-10-28T17:28:30.049Z,7.13
2022-10-28T17:31:07.843Z,6.70
2022-10-28T17:33:35.232Z,7.43
2022-10-28T17:36:07.860Z,6.73
2022-10-28T17:38:34.875Z,6.80
2022-10-28T17:41:01.634Z,6.60
2022-10-28T17:43:28.414Z,6.50
2022-10-28T17:46:04.379Z,6.50
2022-10-28T17:48:31.120Z,6.20
2022-10-28T17:50:57.889Z,6.10
2022-10-28T17:53:24.626Z,5.53
2022-10-28T17:55:58.281Z,6.70
2022-10-28T17:58:25.342Z,8.53
2022-10-28T18:01:06.556Z,7.63
2022-10-28T18:03:38.250Z,7.40
2022-10-28T18:06:07.737Z,7.83
2022-10-28T18:08:37.457Z,8.83
2022-10-28T18:11:05.794Z,9.77
2022-10-28T18:13:34.809Z,7.20
2022-10-28T18:16:09.720Z,8.87
2022-10-28T18:18:41.105Z,9.00
2022-10-28T18:21:13.567Z,8.20
2022-10-28T18:23:41.164Z,8.33
2022-10-28T18:26:11.780Z,13.70
2022-10-28T18:28:39.269Z,9.27
2022-10-28T18:31:10.055Z,8.13
2022-10-28T18:33:36.870Z,6.97
2022-10-28T18:36:06.904Z,8.90
2022-10-28T18:38:34.066Z,8.87
2022-10-28T18:41:00.800Z,8.90
2022-10-28T18:43:27.920Z,7.93
2022-10-28T18:45:55.105Z,8.53
2022-10-28T18:48:21.782Z,8.83
2022-10-28T18:50:56.474Z,7.03
2022-10-28T18:53:23.296Z,7.10
2022-10-28T18:55:50.018Z,7.87
2022-10-28T18:58:17.323Z,7.60
2022-10-28T19:00:44.022Z,6.43
2022-10-28T19:03:22.266Z,7.20
2022-10-28T19:05:49.540Z,6.50
2022-10-28T19:08:16.234Z,8.27
2022-10-28T19:10:42.994Z,9.77
2022-10-28T19:13:09.763Z,9.13
2022-10-28T19:15:42.013Z,6.60
2022-10-28T19:18:08.768Z,7.03
2022-10-28T19:20:35.525Z,6.17
2022-10-28T19:23:02.517Z,7.53
2022-10-28T19:25:29.313Z,6.90
2022-10-28T19:27:57.665Z,9.60
2022-10-28T19:30:24.454Z,7.97
2022-10-28T19:32:51.235Z,8.57
2022-10-28T19:35:18.110Z,8.70
2022-10-28T19:37:44.844Z,8.37
2022-10-28T19:40:11.677Z,10.20
2022-10-28T19:42:39.645Z,8.63
2022-10-28T19:45:07.072Z,7.50
2022-10-28T19:47:33.755Z,9.40
2022-10-28T19:50:00.454Z,9.10
2022-10-28T19:52:27.183Z,10.07
2022-10-28T19:54:53.891Z,9.90
2022-10-28T19:57:20.573Z,9.63
2022-10-28T19:59:47.307Z,9.20
2022-10-28T20:02:14.103Z,7.97
2022-10-28T20:04:40.839Z,8.00
2022-10-28T20:07:07.561Z,7.00
2022-10-28T20:09:34.267Z,7.43
2022-10-28T20:12:01.883Z,7.97
2022-10-28T20:14:29.175Z,8.60
2022-10-28T20:16:55.963Z,7.97
2022-10-28T20:19:22.711Z,8.00
2022-10-28T20:21:50.787Z,8.07
2022-10-28T20:24:17.587Z,8.13
2022-10-28T20:26:44.287Z,7.87
2022-10-28T20:29:10.965Z,7.40
2022-10-28T20:31:39.064Z,7.60
2022-10-28T20:34:06.792Z,9.13
2022-10-28T20:36:34.691Z,9.53
2022-10-28T20:39:09.537Z,7.33
2022-10-28T20:41:37.957Z,8.53
2022-10-28T20:44:05.371Z,10.40
2022-10-28T20:46:32.563Z,8.70
2022-10-28T20:49:00.783Z,9.40
2022-10-28T20:51:29.697Z,8.93
2022-10-28T20:53:56.848Z,8.17
2022-10-28T20:56:28.663Z,8.33
2022-10-28T20:58:56.109Z,8.30
2022-10-28T21:01:24.351Z,9.70
2022-10-28T21:03:54.762Z,7.90
2022-10-28T21:06:21.839Z,7.70
2022-10-28T21:08:48.648Z,7.60
2022-10-28T21:11:16.483Z,7.87
2022-10-28T21:13:44.018Z,6.60
2022-10-28T21:16:12.034Z,6.90
2022-10-28T21:18:39.891Z,7.03
2022-10-28T21:21:07.015Z,7.60
2022-10-28T21:23:34.124Z,7.27
2022-10-28T21:26:06.208Z,8.43
2022-10-28T21:28:33.854Z,7.37
2022-10-28T21:31:09.405Z,8.83
2022-10-28T21:33:37.745Z,7.77
2022-10-28T21:36:11.332Z,7.87
2022-10-28T21:38:38.341Z,8.23
2022-10-28T21:41:10.872Z,9.80
2022-10-28T21:43:40.285Z,7.63
2022-10-28T21:46:07.906Z,8.20
2022-10-28T21:48:35.874Z,6.70
2022-10-28T21:51:07.227Z,8.37
2022-10-28T21:53:38.015Z,9.60
2022-10-28T21:56:06.771Z,9.53
2022-10-28T21:58:36.402Z,9.70
2022-10-28T22:01:07.716Z,8.13
2022-10-28T22:03:34.798Z,7.40
2022-10-28T22:06:01.587Z,8.63
2022-10-28T22:08:28.503Z,8.07
2022-10-28T22:11:06.766Z,8.10
2022-10-28T22:13:34.417Z,7.97
2022-10-28T22:16:03.499Z,8.80
2022-10-28T22:18:32.128Z,8.60
2022-10-28T22:21:05.346Z,8.20
2022-10-28T22:23:32.322Z,7.57
2022-10-28T22:26:03.032Z,8.47
2022-10-28T22:28:29.810Z,8.17
2022-10-28T22:31:00.841Z,8.63
2022-10-28T22:33:27.664Z,8.10
2022-10-28T22:36:05.928Z,8.30
2022-10-28T22:38:32.932Z,9.10
2022-10-28T22:41:11.714Z,8.63
2022-10-28T22:43:39.462Z,6.93
2022-10-28T22:46:07.173Z,9.00
2022-10-28T22:48:37.436Z,8.47
2022-10-28T22:51:05.012Z,8.40
2022-10-28T22:53:32.231Z,8.20
2022-10-28T22:55:58.945Z,7.97
2022-10-28T22:58:26.607Z,8.50
2022-10-28T23:00:53.549Z,7.70
2022-10-28T23:03:20.481Z,7.27
2022-10-28T23:05:47.259Z,8.47
2022-10-28T23:08:16.772Z,8.17
2022-10-28T23:10:43.522Z,7.60
2022-10-28T23:13:12.689Z,7.10
2022-10-28T23:15:39.543Z,6.27
2022-10-28T23:18:06.266Z,8.93
2022-10-28T23:20:35.682Z,6.33
2022-10-28T23:23:02.428Z,7.97
2022-10-28T23:25:29.278Z,7.47
2022-10-28T23:27:56.315Z,6.60
2022-10-28T23:30:23.210Z,7.73
2022-10-28T23:32:49.959Z,8.87
2022-10-28T23:35:17.540Z,7.77
2022-10-28T23:37:44.265Z,7.70
2022-10-28T23:40:11.482Z,6.93
2022-10-28T23:42:38.160Z,7.17
2022-10-28T23:45:05.473Z,7.50
2022-10-28T23:47:32.135Z,7.93
2022-10-28T23:49:58.947Z,7.07
2022-10-28T23:52:25.744Z,6.47
2022-10-28T23:54:52.461Z,6.00
2022-10-28T23:57:19.141Z,6.97
2022-10-28T23:59:45.880Z,6.50
